Briefing drone pour Annecy (LFLP)

Rechercher une autre localisation

Conditions de vol :


Nous sommes le : Jeudi 29 septembre 2022
Il est 02:12 UTC (04:12 LT)

Lever de soleil : 05:04 UTC (07:04 LT)
Coucher de soleil : 17:47 UTC (19:47 LT)

Météo

L'essentiel des conditions de vol

VIGILANCE MÉTÉO FRANCE - Haute-Savoie (74)
Vigilance Jaune : Pluie-inondation
CARTE TEMSI
CARTES DES FRONTS
METAR de LFLP
LFLP 290200Z AUTO 20005KT 150V230 6000 -RA BKN007 BKN020 BKN036 11/11 Q1002

Date d'émission: 29/09/2022
Heure d'émission: 02:00 UTC
Vent: 200° (variable du 150° au 230°) pour 5 KT (9 km/h)
Visibilité horizontale: 6000 m
Plafond :
- Nuages morcelés à 700ft (213m)
- Nuages morcelés à 2000ft (610m)
- Nuages morcelés à 3600ft (1097m)
Température: 11 °C
Point de rosée: 11 °C
Humidité: 100%
Pression (QNH): 1002 hPa
Conditions: Faible pluie
TAF de LFLP
AMD LFLP 281901Z 2819/2915 CNL

Conditions prévues :

Heure d'émission : Bulletin éffectué le 28 à 19:00 UTC
Prévision : Valide du 28 a 19:00 UTC au 29 a 15:00 UTC
Nuages : à 0ft (0 m)
WEBCAM POUR ANNECY

Réglementation

Voler en sécurité

CARTES AERONAUTIQUE 1/500.000
CARTE AZBA (Reseau basse altitude)
CARTES VAC (LFLP)
SUP AIP




Chargement des AIP...
NOTAM (ANNECY + Terrain à proximité / FIR )




Chargement des NOTAMS...
CONTACT PREFECTURE 74


Avertissement : Les données mises à disposition sont indicatives. Oxygène Drone ne pourra être tenu responsable de dégâts causés aux biens et aux personnes.